createdAt,value
2019-05-13T00:01:53.833Z,22.53
2019-05-13T00:04:21.622Z,22.30
2019-05-13T00:06:54.215Z,21.97
2019-05-13T00:09:24.501Z,17.10
2019-05-13T00:11:54.561Z,18.03
2019-05-13T00:14:24.008Z,16.40
2019-05-13T00:16:53.696Z,23.67
2019-05-13T00:19:23.374Z,18.53
2019-05-13T00:21:51.464Z,18.20
2019-05-13T00:24:20.063Z,17.30
2019-05-13T00:26:47.973Z,17.23
2019-05-13T00:29:15.987Z,19.53
2019-05-13T00:31:44.854Z,19.00
2019-05-13T00:34:14.491Z,19.53
2019-05-13T00:36:44.370Z,22.60
2019-05-13T00:39:15.300Z,23.27
2019-05-13T00:41:44.251Z,22.73
2019-05-13T00:44:14.272Z,22.10
2019-05-13T00:46:44.080Z,23.73
2019-05-13T00:49:13.477Z,23.77
2019-05-13T00:51:44.225Z,21.37
2019-05-13T00:54:13.336Z,20.77
2019-05-13T00:56:43.446Z,20.27
2019-05-13T00:59:10.687Z,21.17
2019-05-13T01:01:39.320Z,21.73
2019-05-13T01:04:07.190Z,20.77
2019-05-13T01:06:34.961Z,17.23
2019-05-13T01:09:07.325Z,14.97
2019-05-13T01:11:34.991Z,19.63
2019-05-13T01:14:04.271Z,13.93
2019-05-13T01:16:36.668Z,10.00
2019-05-13T01:19:04.446Z,9.07
2019-05-13T01:21:35.282Z,6.90
2019-05-13T01:24:04.841Z,7.23
2019-05-13T01:26:33.766Z,6.50
2019-05-13T01:29:08.039Z,4.83
2019-05-13T01:31:35.728Z,5.30
2019-05-13T01:34:04.103Z,4.67
2019-05-13T01:36:34.104Z,4.80
2019-05-13T01:39:01.662Z,3.87
2019-05-13T01:41:29.419Z,3.70
2019-05-13T01:43:57.056Z,4.90
2019-05-13T01:46:24.911Z,4.87
2019-05-13T01:48:58.445Z,6.47
2019-05-13T01:51:26.276Z,6.03
2019-05-13T01:53:57.026Z,5.67
2019-05-13T01:56:24.663Z,5.57
2019-05-13T01:58:54.142Z,5.97
2019-05-13T02:01:24.043Z,5.63
2019-05-13T02:03:51.770Z,6.40
2019-05-13T02:06:19.542Z,5.83
2019-05-13T02:08:47.190Z,7.40
2019-05-13T02:11:14.839Z,7.40
2019-05-13T02:13:44.573Z,5.67
2019-05-13T02:16:14.496Z,5.40
2019-05-13T02:18:44.221Z,6.10
2019-05-13T02:21:11.236Z,6.50
2019-05-13T02:23:38.867Z,5.80
2019-05-13T02:26:08.763Z,5.10
2019-05-13T02:28:36.495Z,5.07
2019-05-13T02:31:04.358Z,5.57
2019-05-13T02:33:33.907Z,5.47
2019-05-13T02:36:02.939Z,4.83
2019-05-13T02:38:35.348Z,4.07
2019-05-13T02:41:02.920Z,3.20
2019-05-13T02:43:33.275Z,3.03
2019-05-13T02:46:04.238Z,3.23
2019-05-13T02:48:33.408Z,3.57
2019-05-13T02:51:04.257Z,3.20
2019-05-13T02:53:33.685Z,3.00
2019-05-13T02:56:02.995Z,3.50
2019-05-13T02:58:33.350Z,3.67
2019-05-13T03:01:03.204Z,3.57
2019-05-13T03:03:32.538Z,3.50
2019-05-13T03:06:03.551Z,4.07
2019-05-13T03:08:44.710Z,3.77
2019-05-13T03:11:02.967Z,4.23
2019-05-13T03:13:32.610Z,4.10
2019-05-13T03:16:23.426Z,4.00
2019-05-13T03:18:54.307Z,3.23
2019-05-13T03:21:23.177Z,3.70
2019-05-13T03:23:56.370Z,4.37
2019-05-13T03:26:25.441Z,3.80
2019-05-13T03:28:55.222Z,3.90
2019-05-13T03:31:36.134Z,3.90
2019-05-13T03:34:07.988Z,3.93
2019-05-13T03:36:37.801Z,3.70
2019-05-13T03:39:10.944Z,3.40
2019-05-13T03:41:38.429Z,3.40
2019-05-13T03:46:53.097Z,4.10
2019-05-13T03:49:34.943Z,3.80
2019-05-13T03:52:03.514Z,4.03
2019-05-13T03:54:34.900Z,3.30
2019-05-13T03:57:03.776Z,3.70
2019-05-13T03:59:33.325Z,4.00
2019-05-13T04:02:02.506Z,3.47
2019-05-13T04:04:35.885Z,3.43
2019-05-13T04:07:03.724Z,3.30
2019-05-13T04:09:36.323Z,3.43
2019-05-13T04:12:04.366Z,2.93
2019-05-13T04:14:35.331Z,3.47
2019-05-13T04:17:03.526Z,3.60
2019-05-13T04:19:36.819Z,3.73
2019-05-13T04:22:04.442Z,3.60
2019-05-13T04:24:33.463Z,4.07
2019-05-13T04:27:02.909Z,4.20
2019-05-13T04:29:33.426Z,4.80
2019-05-13T04:32:02.377Z,5.73
2019-05-13T04:34:33.861Z,6.50
2019-05-13T04:37:02.575Z,10.20
2019-05-13T04:39:44.700Z,12.03
2019-05-13T04:42:02.318Z,15.90
2019-05-13T04:44:32.347Z,16.10
2019-05-13T04:47:06.312Z,17.27
2019-05-13T04:49:33.949Z,16.23
2019-05-13T04:52:03.430Z,16.60
2019-05-13T04:54:33.522Z,17.67
2019-05-13T04:57:02.898Z,17.23
2019-05-13T04:59:54.927Z,17.90
2019-05-13T05:02:55.958Z,20.27
2019-05-13T05:06:28.477Z,19.87
2019-05-13T05:09:22.562Z,21.43
2019-05-13T05:12:32.127Z,24.47
2019-05-13T05:15:32.834Z,25.33
2019-05-13T05:18:27.511Z,23.43
2019-05-13T05:21:13.288Z,16.27
2019-05-13T05:24:36.036Z,17.33
2019-05-13T05:27:36.732Z,17.87
2019-05-13T05:30:12.275Z,14.83
2019-05-13T05:33:33.936Z,14.53
2019-05-13T05:36:36.480Z,15.97
2019-05-13T05:39:17.917Z,9.20
2019-05-13T05:41:54.557Z,8.63
2019-05-13T05:44:25.508Z,8.20
2019-05-13T05:46:56.849Z,10.43
2019-05-13T05:49:31.992Z,9.77
2019-05-13T05:52:06.845Z,11.27
2019-05-13T05:55:18.034Z,11.83
2019-05-13T05:57:55.066Z,12.20
2019-05-13T06:00:41.507Z,15.93
2019-05-13T06:03:14.042Z,14.60
2019-05-13T06:05:52.038Z,9.87
2019-05-13T06:08:22.202Z,12.10
2019-05-13T06:10:53.786Z,12.30
2019-05-13T06:13:45.447Z,13.90
2019-05-13T06:16:28.714Z,11.33
2019-05-13T06:19:01.354Z,12.27
2019-05-13T06:21:33.587Z,13.17
2019-05-13T06:24:03.141Z,10.27
2019-05-13T06:26:42.375Z,9.50
2019-05-13T06:29:11.644Z,8.43
2019-05-13T06:31:51.825Z,8.40
2019-05-13T06:34:23.166Z,9.37
2019-05-13T06:36:52.283Z,8.73
2019-05-13T06:39:31.429Z,10.47
2019-05-13T06:42:05.776Z,12.47
2019-05-13T06:44:33.879Z,12.27
2019-05-13T06:47:03.179Z,12.67
2019-05-13T06:49:47.364Z,13.07
2019-05-13T06:52:18.025Z,9.13
2019-05-13T06:54:45.938Z,5.47
2019-05-13T06:57:14.108Z,6.70
2019-05-13T06:59:42.275Z,8.33
2019-05-13T07:02:12.372Z,9.33
2019-05-13T07:04:52.965Z,9.73
2019-05-13T07:07:21.926Z,9.37
2019-05-13T07:09:51.705Z,9.30
2019-05-13T07:12:21.830Z,11.93
2019-05-13T07:14:51.149Z,7.20
2019-05-13T07:17:25.338Z,7.60
2019-05-13T07:19:53.539Z,5.83
2019-05-13T07:22:33.675Z,5.50
2019-05-13T07:25:06.354Z,6.47
2019-05-13T07:27:34.128Z,4.87
2019-05-13T07:30:11.590Z,5.53
2019-05-13T07:32:41.886Z,5.07
2019-05-13T07:35:13.340Z,4.77
2019-05-13T07:37:43.770Z,4.83
2019-05-13T07:40:12.857Z,4.63
2019-05-13T07:42:41.938Z,4.97
2019-05-13T07:45:14.431Z,5.33
2019-05-13T07:47:45.621Z,6.23
2019-05-13T07:50:17.458Z,6.83
2019-05-13T07:52:46.847Z,6.40
2019-05-13T07:55:16.777Z,7.30
2019-05-13T07:57:46.370Z,5.03
2019-05-13T08:00:14.838Z,5.50
2019-05-13T08:02:45.749Z,4.77
2019-05-13T08:05:14.024Z,4.80
2019-05-13T08:07:42.276Z,4.50
2019-05-13T08:10:11.676Z,4.07
2019-05-13T08:12:51.598Z,4.27
2019-05-13T08:15:15.608Z,4.30
2019-05-13T08:17:47.715Z,4.60
2019-05-13T08:23:05.549Z,5.40
2019-05-13T08:25:33.205Z,4.60
2019-05-13T08:28:02.095Z,4.70
2019-05-13T08:30:31.868Z,4.97
2019-05-13T08:33:01.714Z,4.50
2019-05-13T08:35:31.845Z,4.93
2019-05-13T08:38:01.383Z,5.13
2019-05-13T08:40:31.519Z,4.90
2019-05-13T08:43:01.394Z,5.53
2019-05-13T08:45:31.332Z,5.33
2019-05-13T08:47:58.629Z,5.47
2019-05-13T08:50:26.358Z,5.20
2019-05-13T08:52:53.999Z,5.47
2019-05-13T08:55:21.809Z,5.33
2019-05-13T08:57:53.157Z,4.90
2019-05-13T09:00:44.901Z,5.23
2019-05-13T09:03:13.803Z,5.70
2019-05-13T09:05:52.229Z,5.93
2019-05-13T09:08:23.354Z,5.87
2019-05-13T09:10:52.092Z,6.27
2019-05-13T09:13:22.349Z,6.30
2019-05-13T09:15:51.695Z,5.90
2019-05-13T09:18:22.486Z,5.23
2019-05-13T09:20:52.064Z,6.20
2019-05-13T09:23:22.041Z,6.42
2019-05-13T09:25:49.180Z,6.17
2019-05-13T09:28:21.836Z,6.10
2019-05-13T09:30:52.732Z,7.05
2019-05-13T09:33:21.766Z,6.60
2019-05-13T09:35:50.970Z,6.90
2019-05-13T09:38:18.539Z,6.73
2019-05-13T09:40:46.475Z,6.90
2019-05-13T09:43:18.988Z,8.10
2019-05-13T09:45:46.864Z,7.20
2019-05-13T09:48:34.319Z,6.87
2019-05-13T09:51:02.542Z,7.43
2019-05-13T09:53:43.218Z,7.30
2019-05-13T09:56:11.825Z,7.27
2019-05-13T09:58:42.076Z,6.87
2019-05-13T10:01:22.459Z,6.90
2019-05-13T10:03:57.770Z,7.10
2019-05-13T10:06:22.923Z,6.37
2019-05-13T10:09:02.943Z,7.10
2019-05-13T10:11:33.761Z,6.80
2019-05-13T10:14:02.444Z,6.97
2019-05-13T10:16:32.144Z,6.70
2019-05-13T10:19:08.751Z,6.20
2019-05-13T10:21:36.777Z,6.03
2019-05-13T10:24:04.970Z,6.10
2019-05-13T10:26:33.671Z,5.80
2019-05-13T10:29:01.524Z,7.20
2019-05-13T10:31:31.424Z,5.63
2019-05-13T10:34:02.068Z,5.83
2019-05-13T10:36:30.217Z,5.83
2019-05-13T10:38:58.496Z,6.40
2019-05-13T10:41:27.310Z,6.50
2019-05-13T10:43:55.224Z,6.03
2019-05-13T10:46:24.444Z,6.57
2019-05-13T10:48:53.601Z,6.60
2019-05-13T10:51:22.393Z,6.83
2019-05-13T10:53:53.554Z,6.70
2019-05-13T10:56:20.102Z,6.60
2019-05-13T10:58:48.051Z,7.27
2019-05-13T11:01:15.936Z,6.30
2019-05-13T11:03:43.941Z,6.53
2019-05-13T11:06:11.807Z,7.10
2019-05-13T11:08:42.243Z,7.30
2019-05-13T11:11:10.218Z,6.53
2019-05-13T11:13:52.170Z,7.30
2019-05-13T11:16:12.321Z,7.27
2019-05-13T11:18:40.681Z,7.10
2019-05-13T11:21:13.084Z,7.87
2019-05-13T11:23:41.507Z,6.97
2019-05-13T11:26:10.111Z,7.23
2019-05-13T11:28:42.863Z,7.70
2019-05-13T11:31:12.075Z,8.03
2019-05-13T11:33:42.475Z,7.60
2019-05-13T11:36:12.923Z,7.83
2019-05-13T11:38:43.513Z,7.70
2019-05-13T11:41:22.583Z,8.10
2019-05-13T11:44:08.051Z,8.10
2019-05-13T11:46:22.605Z,8.20
2019-05-13T11:48:52.599Z,7.93
2019-05-13T11:51:24.229Z,8.23
2019-05-13T11:53:52.422Z,8.20
2019-05-13T11:56:23.024Z,7.20
2019-05-13T11:58:53.450Z,7.73
2019-05-13T12:01:22.930Z,6.23
2019-05-13T12:04:02.527Z,5.83
2019-05-13T12:06:27.985Z,5.50
2019-05-13T12:08:56.244Z,5.87
2019-05-13T12:11:24.253Z,5.27
2019-05-13T12:13:53.117Z,5.43
2019-05-13T12:16:22.740Z,5.57
2019-05-13T12:18:52.541Z,5.23
2019-05-13T12:21:21.138Z,5.30
2019-05-13T12:23:52.448Z,5.33
2019-05-13T12:26:19.106Z,4.77
2019-05-13T12:28:48.134Z,4.97
2019-05-13T12:31:17.721Z,5.40
2019-05-13T12:33:48.098Z,4.90
2019-05-13T12:36:26.134Z,5.00
2019-05-13T12:38:55.810Z,4.70
2019-05-13T12:41:23.892Z,4.20
2019-05-13T12:43:53.853Z,4.60
2019-05-13T12:46:24.708Z,4.90
2019-05-13T12:48:51.765Z,4.27
2019-05-13T12:51:20.108Z,3.90
2019-05-13T12:53:52.430Z,4.33
2019-05-13T12:56:18.970Z,4.93
2019-05-13T12:58:46.692Z,4.23
2019-05-13T13:01:14.583Z,4.60
2019-05-13T13:03:44.252Z,4.20
2019-05-13T13:06:27.290Z,3.93
2019-05-13T13:08:48.360Z,4.37
2019-05-13T13:11:12.730Z,4.33
2019-05-13T13:13:57.849Z,4.37
2019-05-13T13:16:12.605Z,4.30
2019-05-13T13:18:43.511Z,4.47
2019-05-13T13:21:14.462Z,4.50
2019-05-13T13:23:54.160Z,4.17
2019-05-13T13:26:22.716Z,4.50
2019-05-13T13:28:55.745Z,4.63
2019-05-13T13:31:24.612Z,4.47
2019-05-13T13:33:54.058Z,4.83
2019-05-13T13:36:23.911Z,4.53
2019-05-13T13:38:55.665Z,4.70
2019-05-13T13:41:22.724Z,4.00
2019-05-13T13:43:53.803Z,4.40
2019-05-13T13:46:33.773Z,4.47
2019-05-13T13:48:54.831Z,4.47
2019-05-13T13:51:25.908Z,4.30
2019-05-13T13:53:49.494Z,4.30
2019-05-13T13:56:25.425Z,4.00
2019-05-13T13:58:51.293Z,4.20
2019-05-13T14:01:22.371Z,3.70
2019-05-13T14:03:48.812Z,3.97
2019-05-13T14:07:13.010Z,3.33
2019-05-13T14:08:46.590Z,2.80
2019-05-13T14:11:14.391Z,2.40
2019-05-13T14:13:42.719Z,2.30
2019-05-13T14:16:25.028Z,2.37
2019-05-13T14:18:42.717Z,2.03
2019-05-13T14:21:10.522Z,2.23
2019-05-13T14:23:39.032Z,2.23
2019-05-13T14:26:06.952Z,2.10
2019-05-13T14:28:37.619Z,2.20
2019-05-13T14:31:05.465Z,2.30
2019-05-13T14:33:43.478Z,2.00
2019-05-13T14:36:02.820Z,2.10
2019-05-13T14:38:32.676Z,2.10
2019-05-13T14:41:03.016Z,2.10
2019-05-13T14:43:31.752Z,2.10
2019-05-13T14:46:02.345Z,2.37
2019-05-13T14:48:32.552Z,2.07
2019-05-13T14:50:59.799Z,2.07
2019-05-13T14:53:31.866Z,2.30
2019-05-13T14:56:03.040Z,2.53
2019-05-13T14:58:32.468Z,2.47
2019-05-13T15:01:14.810Z,2.70
2019-05-13T15:03:32.614Z,2.40
2019-05-13T15:06:01.508Z,2.70
2019-05-13T15:08:45.151Z,2.73
2019-05-13T15:11:13.160Z,2.77
2019-05-13T15:13:42.536Z,3.03
2019-05-13T15:16:13.820Z,2.80
2019-05-13T15:18:47.666Z,2.90
2019-05-13T15:21:31.893Z,3.03
2019-05-13T15:24:02.335Z,3.50
2019-05-13T15:26:32.780Z,3.40
2019-05-13T15:29:04.649Z,3.10
2019-05-13T15:31:31.871Z,3.63
2019-05-13T15:34:02.811Z,2.80
2019-05-13T15:36:32.306Z,3.13
2019-05-13T15:39:01.415Z,3.70
2019-05-13T15:41:34.154Z,3.50
2019-05-13T15:44:03.469Z,3.90
2019-05-13T15:46:32.277Z,3.73
2019-05-13T15:49:01.722Z,3.47
2019-05-13T15:51:31.436Z,3.90
2019-05-13T15:54:02.212Z,3.60
2019-05-13T15:56:31.513Z,3.90
2019-05-13T15:59:01.760Z,3.80
2019-05-13T16:01:29.344Z,3.67
2019-05-13T16:03:58.416Z,3.63
2019-05-13T16:06:26.350Z,3.43
2019-05-13T16:08:54.250Z,5.07
2019-05-13T16:11:23.087Z,6.87
2019-05-13T16:13:53.463Z,10.90
2019-05-13T16:16:22.341Z,12.07
2019-05-13T16:18:51.550Z,11.97
2019-05-13T16:21:23.061Z,13.07
2019-05-13T16:23:52.165Z,10.07
2019-05-13T16:26:22.505Z,8.00
2019-05-13T16:28:52.292Z,6.53
2019-05-13T16:31:20.396Z,5.93
2019-05-13T16:33:48.242Z,5.20
2019-05-13T16:36:23.998Z,4.50
2019-05-13T16:38:52.269Z,3.83
2019-05-13T16:41:22.102Z,3.47
2019-05-13T16:43:53.642Z,3.80
2019-05-13T16:46:21.933Z,3.97
2019-05-13T16:48:55.647Z,4.40
2019-05-13T16:51:23.927Z,4.13
2019-05-13T16:53:53.510Z,5.17
2019-05-13T16:56:30.368Z,6.37
2019-05-13T16:58:54.863Z,6.30
2019-05-13T17:01:25.608Z,6.57
2019-05-13T17:03:54.918Z,5.30
2019-05-13T17:06:32.677Z,14.07
2019-05-13T17:09:02.017Z,5.93
2019-05-13T17:11:41.308Z,5.10
2019-05-13T17:14:09.114Z,5.20
2019-05-13T17:16:37.415Z,5.47
2019-05-13T17:19:09.280Z,5.80
2019-05-13T17:21:38.067Z,7.30
2019-05-13T17:24:06.415Z,24.23
2019-05-13T17:26:52.272Z,19.20
2019-05-13T17:29:21.137Z,13.63
2019-05-13T17:31:55.600Z,14.40
2019-05-13T17:34:25.737Z,8.97
2019-05-13T17:36:55.309Z,8.20
2019-05-13T17:39:23.818Z,7.80
2019-05-13T17:41:53.034Z,5.30
2019-05-13T17:44:21.958Z,5.17
2019-05-13T17:46:52.232Z,5.67
2019-05-13T17:49:22.121Z,4.90
2019-05-13T17:51:51.757Z,4.90
2019-05-13T17:54:22.183Z,5.33
2019-05-13T17:56:51.640Z,4.90
2019-05-13T17:59:22.317Z,5.47
2019-05-13T18:01:51.671Z,6.03
2019-05-13T18:04:22.641Z,5.27
2019-05-13T18:06:52.294Z,5.00
2019-05-13T18:09:22.448Z,4.63
2019-05-13T18:11:52.824Z,5.10
2019-05-13T18:14:21.750Z,4.60
2019-05-13T18:16:53.990Z,4.90
2019-05-13T18:19:25.767Z,5.50
2019-05-13T18:21:53.242Z,4.67
2019-05-13T18:24:23.077Z,4.73
2019-05-13T18:26:54.341Z,5.00
2019-05-13T18:29:22.834Z,4.73
2019-05-13T18:31:52.473Z,5.67
2019-05-13T18:34:21.499Z,5.40
2019-05-13T18:36:51.644Z,5.60
2019-05-13T18:39:21.622Z,5.40
2019-05-13T18:41:50.431Z,5.63
2019-05-13T18:44:18.636Z,5.37
2019-05-13T18:46:47.272Z,5.53
2019-05-13T18:49:15.981Z,4.90
2019-05-13T18:51:44.579Z,5.07
2019-05-13T18:54:13.159Z,5.10
2019-05-13T18:56:46.440Z,5.03
2019-05-13T18:59:14.268Z,4.87
2019-05-13T19:01:45.987Z,4.10
2019-05-13T19:04:13.938Z,4.37
2019-05-13T19:06:42.524Z,4.23
2019-05-13T19:09:11.329Z,4.70
2019-05-13T19:11:42.378Z,4.40
2019-05-13T19:14:12.052Z,4.37
2019-05-13T19:16:42.250Z,4.47
2019-05-13T19:19:16.975Z,4.37
2019-05-13T19:21:45.393Z,4.43
2019-05-13T19:24:13.638Z,4.90
2019-05-13T19:26:56.498Z,4.20
2019-05-13T19:29:28.346Z,4.50
2019-05-13T19:31:58.332Z,4.40
2019-05-13T19:34:26.535Z,4.60
2019-05-13T19:36:56.046Z,4.93
2019-05-13T19:39:24.682Z,5.00
2019-05-13T19:41:53.217Z,5.40
2019-05-13T19:44:22.032Z,5.60
2019-05-13T19:46:52.327Z,5.77
2019-05-13T19:49:31.940Z,6.77
2019-05-13T19:51:52.142Z,5.87
2019-05-13T19:54:22.270Z,5.70
2019-05-13T19:56:52.015Z,4.53
2019-05-13T19:59:23.128Z,5.00
2019-05-13T20:01:51.772Z,4.43
2019-05-13T20:04:21.859Z,4.63
2019-05-13T20:06:53.832Z,6.20
2019-05-13T20:09:22.220Z,5.73
2019-05-13T20:11:55.337Z,5.40
2019-05-13T20:14:23.766Z,5.37
2019-05-13T20:16:52.492Z,5.67
2019-05-13T20:19:22.330Z,5.50
2019-05-13T20:21:51.764Z,5.20
2019-05-13T20:24:21.822Z,5.93
2019-05-13T20:26:52.131Z,5.73
2019-05-13T20:29:21.104Z,5.90
2019-05-13T20:31:49.205Z,5.50
2019-05-13T20:34:17.365Z,5.40
2019-05-13T20:36:45.254Z,5.70
2019-05-13T20:39:13.797Z,6.17
2019-05-13T20:41:42.597Z,7.00
2019-05-13T20:44:11.138Z,6.07
2019-05-13T20:46:38.832Z,7.47
2019-05-13T20:49:06.734Z,7.70
2019-05-13T20:51:36.085Z,8.23
2019-05-13T20:54:05.775Z,8.33
2019-05-13T20:56:35.823Z,8.23
2019-05-13T20:59:08.121Z,8.67
2019-05-13T21:01:36.693Z,8.73
2019-05-13T21:04:04.579Z,10.33
2019-05-13T21:06:32.369Z,10.27
2019-05-13T21:09:02.332Z,9.90
2019-05-13T21:11:33.167Z,10.47
2019-05-13T21:14:10.967Z,11.93
2019-05-13T21:16:38.687Z,14.63
2019-05-13T21:19:25.739Z,13.53
2019-05-13T21:21:53.701Z,14.10
2019-05-13T21:24:21.835Z,13.57
2019-05-13T21:27:02.063Z,14.43
2019-05-13T21:29:32.331Z,14.80
2019-05-13T21:32:02.633Z,14.17
2019-05-13T21:34:31.572Z,12.53
2019-05-13T21:37:02.098Z,12.40
2019-05-13T21:39:31.830Z,12.83
2019-05-13T21:41:59.462Z,10.97
2019-05-13T21:44:29.440Z,9.70
2019-05-13T21:46:57.896Z,9.70
2019-05-13T21:49:26.150Z,7.97
2019-05-13T21:51:55.886Z,7.97
2019-05-13T21:54:23.896Z,7.57
2019-05-13T21:56:53.461Z,8.23
2019-05-13T21:59:25.505Z,8.23
2019-05-13T22:01:57.474Z,7.03
2019-05-13T22:04:27.002Z,6.70
2019-05-13T22:07:01.532Z,6.40
2019-05-13T22:09:31.850Z,6.00
2019-05-13T22:12:01.808Z,6.47
2019-05-13T22:14:38.072Z,6.83
2019-05-13T22:17:42.289Z,6.47
2019-05-13T22:20:21.361Z,5.87
2019-05-13T22:23:01.922Z,6.50
2019-05-13T22:25:29.163Z,5.53
2019-05-13T22:28:11.658Z,6.07
2019-05-13T22:30:41.237Z,5.60
2019-05-13T22:33:15.007Z,5.73
2019-05-13T22:36:05.394Z,5.40
2019-05-13T22:41:16.895Z,5.93
2019-05-13T22:43:54.643Z,6.07
2019-05-13T22:46:16.306Z,5.57
2019-05-13T22:48:53.388Z,6.20
2019-05-13T22:59:25.205Z,6.13
2019-05-13T23:01:53.915Z,6.50
2019-05-13T23:04:23.796Z,7.13
2019-05-13T23:06:52.979Z,6.83
2019-05-13T23:11:56.807Z,7.37
2019-05-13T23:14:30.230Z,7.17
2019-05-13T23:17:02.368Z,7.03
2019-05-13T23:19:44.306Z,7.20
2019-05-13T23:22:13.086Z,7.03
2019-05-13T23:24:41.789Z,7.27
2019-05-13T23:27:11.024Z,7.50
2019-05-13T23:29:41.363Z,8.10
2019-05-13T23:32:11.820Z,7.43
2019-05-13T23:34:42.270Z,7.97
2019-05-13T23:37:11.487Z,7.67
2019-05-13T23:39:52.016Z,8.33
2019-05-13T23:42:21.217Z,7.53
2019-05-13T23:44:51.797Z,7.70
2019-05-13T23:47:21.804Z,7.37
2019-05-13T23:50:01.987Z,8.03
2019-05-13T23:52:32.042Z,8.30
2019-05-13T23:55:02.112Z,7.90
2019-05-13T23:57:31.413Z,8.33
2019-05-13T23:59:59.458Z,7.50
